Time;durP1;ratioP1;P1;durP2;ratioP2;P2;SDS_P1;SDS_P2;PMS_P1;PMS_P2;Temp;Humidity;BMP_temperature;BMP_pressure;BME280_temperature;BME280_humidity;BME280_pressure;Samples;Min_cycle;Max_cycle;Signal;HPM_P1;HPM_P2
2023/09/03 00:02:25;;;;;;;5.45;3.80;;;20.00;77.20;;;;;;10536978;28;20440;-57
2023/09/03 00:07:26;;;;;;;4.80;3.75;;;20.00;77.10;;;;;;10536796;28;20044;-57
2023/09/03 00:12:27;;;;;;;4.38;3.67;;;20.10;77.10;;;;;;10536856;28;20031;-57
2023/09/03 00:17:28;;;;;;;4.35;3.95;;;20.00;77.10;;;;;;10536512;28;20052;-56
2023/09/03 00:22:29;;;;;;;3.53;2.92;;;20.00;77.00;;;;;;10536566;28;20043;-57
2023/09/03 00:27:30;;;;;;;4.53;3.40;;;20.00;77.00;;;;;;10536142;28;20040;-57
2023/09/03 00:32:30;;;;;;;4.82;3.60;;;20.00;76.90;;;;;;10536219;28;20047;-58
2023/09/03 00:37:31;;;;;;;3.58;2.92;;;20.00;76.80;;;;;;10535584;28;20047;-58
2023/09/03 00:42:33;;;;;;;4.68;3.67;;;20.00;76.80;;;;;;10535927;28;20031;-58
2023/09/03 00:47:34;;;;;;;5.25;3.60;;;20.00;76.70;;;;;;10534862;28;20134;-58
2023/09/03 00:52:35;;;;;;;4.82;3.85;;;20.00;76.70;;;;;;10535178;28;20367;-58
2023/09/03 00:57:36;;;;;;;3.80;3.17;;;20.00;76.70;;;;;;10535063;28;20080;-58
2023/09/03 01:02:37;;;;;;;4.15;3.15;;;20.00;76.70;;;;;;10534841;28;20084;-57
2023/09/03 01:07:38;;;;;;;4.18;3.58;;;20.00;76.60;;;;;;10533835;28;20495;-58
2023/09/03 01:13:20;;;;;;;3.85;3.45;;;20.00;76.60;;;;;;10534346;28;20063;-57
2023/09/03 01:18:26;;;;;;;4.05;3.53;;;20.00;76.60;;;;;;10533477;28;20028;-57
2023/09/03 01:23:55;;;;;;;4.13;3.72;;;20.00;76.50;;;;;;10530700;28;20103;-57
2023/09/03 01:28:56;;;;;;;3.75;3.35;;;20.00;76.40;;;;;;10508804;28;20140;-57
2023/09/03 01:34:02;;;;;;;4.47;3.63;;;19.90;76.30;;;;;;10515672;28;20387;-57
2023/09/03 01:39:03;;;;;;;5.18;3.17;;;19.90;76.30;;;;;;10533488;28;20089;-57
2023/09/03 01:44:05;;;;;;;4.00;3.60;;;19.90;76.30;;;;;;10515342;28;20031;-57
2023/09/03 01:49:26;;;;;;;3.83;3.03;;;19.90;76.20;;;;;;10532737;28;20025;-57
2023/09/03 01:54:41;;;;;;;3.97;3.28;;;19.90;76.10;;;;;;10516225;28;20031;-58
2023/09/03 01:59:47;;;;;;;3.20;2.90;;;19.90;76.20;;;;;;10514895;28;20085;-57
2023/09/03 02:04:48;;;;;;;3.50;2.80;;;19.90;76.10;;;;;;10514910;28;20032;-57
2023/09/03 02:09:49;;;;;;;4.15;3.25;;;19.90;76.00;;;;;;10532304;28;20077;-58
2023/09/03 02:14:52;;;;;;;4.57;3.28;;;19.90;76.00;;;;;;10532791;28;20115;-57
2023/09/03 02:19:54;;;;;;;3.55;3.10;;;19.80;75.90;;;;;;10532581;28;20043;-57
2023/09/03 02:24:55;;;;;;;3.40;3.10;;;19.90;75.90;;;;;;10519263;28;20083;-57
2023/09/03 02:29:55;;;;;;;4.60;2.85;;;19.90;75.80;;;;;;10516911;28;20085;-58
2023/09/03 02:34:56;;;;;;;4.32;3.78;;;19.90;75.80;;;;;;10540649;28;20024;-57
2023/09/03 02:39:57;;;;;;;4.88;3.25;;;19.80;75.80;;;;;;10522357;28;20028;-57
2023/09/03 02:44:58;;;;;;;3.25;2.50;;;19.80;75.80;;;;;;10540594;28;20040;-58
2023/09/03 02:49:58;;;;;;;3.50;2.67;;;19.80;75.70;;;;;;10539841;28;20028;-57
2023/09/03 02:54:59;;;;;;;3.35;2.40;;;19.80;75.60;;;;;;10540243;28;20032;-57
2023/09/03 03:00:00;;;;;;;3.65;3.35;;;19.80;75.60;;;;;;10539084;28;20031;-57
2023/09/03 03:05:02;;;;;;;4.22;3.13;;;19.80;75.60;;;;;;10539651;28;20097;-59
2023/09/03 03:10:04;;;;;;;3.85;2.75;;;19.80;75.60;;;;;;10520337;28;20126;-58
2023/09/03 03:15:05;;;;;;;3.97;2.45;;;19.80;75.60;;;;;;10538909;28;20024;-57
2023/09/03 03:20:07;;;;;;;2.85;2.47;;;19.80;75.50;;;;;;10538600;28;20035;-56
2023/09/03 03:25:08;;;;;;;3.85;3.03;;;19.80;75.50;;;;;;10525267;28;20458;-57
2023/09/03 03:30:09;;;;;;;4.40;3.17;;;19.80;75.50;;;;;;10538177;28;20028;-57
2023/09/03 03:35:10;;;;;;;3.45;2.92;;;19.80;75.50;;;;;;10538966;28;20455;-57
2023/09/03 03:40:11;;;;;;;2.55;2.35;;;19.80;75.40;;;;;;10537631;28;20089;-57
2023/09/03 03:45:12;;;;;;;2.42;2.22;;;19.80;75.40;;;;;;10538170;28;20036;-58
2023/09/03 03:50:12;;;;;;;4.53;2.60;;;19.80;75.30;;;;;;10537525;28;20035;-57
2023/09/03 03:55:13;;;;;;;2.67;2.25;;;19.70;75.10;;;;;;10537813;28;20106;-57
2023/09/03 04:00:14;;;;;;;3.85;2.53;;;19.70;75.10;;;;;;10537084;28;20039;-58
2023/09/03 04:05:15;;;;;;;2.78;2.05;;;19.70;75.20;;;;;;10537055;28;20112;-57
2023/09/03 04:10:16;;;;;;;3.13;2.35;;;19.70;75.10;;;;;;10536348;28;20044;-58
2023/09/03 04:15:17;;;;;;;2.97;2.65;;;19.70;75.10;;;;;;10536751;28;20047;-58
2023/09/03 04:20:18;;;;;;;3.53;2.80;;;19.70;75.00;;;;;;10536507;28;20028;-57
2023/09/03 04:25:18;;;;;;;3.03;2.08;;;19.70;75.00;;;;;;10518243;28;20027;-57
2023/09/03 04:30:19;;;;;;;2.85;2.20;;;19.70;74.90;;;;;;10535755;28;20089;-58
2023/09/03 04:35:20;;;;;;;2.92;2.45;;;19.70;75.00;;;;;;10536028;28;20028;-57
2023/09/03 04:40:21;;;;;;;3.45;2.70;;;19.70;75.00;;;;;;10535391;28;20498;-58
2023/09/03 04:45:22;;;;;;;3.30;2.42;;;19.70;74.90;;;;;;10515037;28;20106;-58
2023/09/03 04:50:23;;;;;;;2.50;1.92;;;19.60;74.80;;;;;;10533697;28;20117;-57
2023/09/03 04:55:24;;;;;;;2.63;2.00;;;19.60;74.80;;;;;;10533088;28;20028;-58
2023/09/03 05:00:25;;;;;;;3.75;2.33;;;19.70;74.90;;;;;;10534037;28;20036;-57
2023/09/03 05:05:26;;;;;;;3.47;2.35;;;19.60;74.80;;;;;;10532642;28;20024;-58
2023/09/03 05:10:26;;;;;;;2.97;2.42;;;19.60;74.70;;;;;;10533853;28;20052;-58
2023/09/03 05:15:27;;;;;;;5.30;2.50;;;19.60;74.60;;;;;;10505833;28;20024;-58
2023/09/03 05:20:28;;;;;;;3.70;2.30;;;19.60;74.70;;;;;;10512346;28;20036;-58
2023/09/03 05:25:29;;;;;;;4.28;2.45;;;19.60;74.60;;;;;;10497748;28;20470;-58
2023/09/03 05:30:30;;;;;;;4.82;2.17;;;19.80;75.20;;;;;;10515234;28;20032;-58
2023/09/03 05:35:30;;;;;;;5.05;2.40;;;20.00;74.90;;;;;;10514551;28;20024;-60
2023/09/03 05:40:31;;;;;;;5.03;2.78;;;20.00;75.30;;;;;;10498015;28;20390;-57
2023/09/03 05:45:32;;;;;;;7.40;3.47;;;20.00;75.20;;;;;;10513251;28;20039;-58
2023/09/03 05:50:33;;;;;;;9.43;2.55;;;19.90;75.30;;;;;;10506524;28;20032;-58
2023/09/03 05:55:39;;;;;;;7.80;2.60;;;19.90;75.30;;;;;;10499317;28;20032;-57
2023/09/03 06:00:41;;;;;;;7.53;2.72;;;19.90;75.30;;;;;;10509366;28;20077;-58
2023/09/03 06:05:42;;;;;;;4.68;2.28;;;19.90;75.20;;;;;;10531833;28;20073;-59
2023/09/03 06:10:43;;;;;;;8.95;3.47;;;19.90;75.50;;;;;;10508316;28;20040;-58
2023/09/03 06:15:44;;;;;;;5.72;2.50;;;19.80;75.50;;;;;;10489634;28;20058;-59
2023/09/03 06:20:46;;;;;;;9.25;3.40;;;19.80;75.50;;;;;;10524898;28;20020;-59
2023/09/03 06:25:47;;;;;;;13.27;3.50;;;19.80;75.50;;;;;;10512621;28;20055;-59
2023/09/03 06:30:48;;;;;;;15.05;4.05;;;19.80;75.70;;;;;;10495478;28;20040;-59
2023/09/03 06:35:48;;;;;;;30.63;4.18;;;19.90;75.90;;;;;;10530279;28;20024;-59
2023/09/03 06:40:49;;;;;;;7.53;3.10;;;19.90;75.90;;;;;;10530996;28;20566;-59
2023/09/03 06:45:50;;;;;;;21.10;4.22;;;19.90;76.00;;;;;;10529664;28;20028;-58
2023/09/03 06:50:51;;;;;;;16.23;4.47;;;19.90;76.00;;;;;;10506264;28;20037;-58
2023/09/03 06:55:52;;;;;;;18.50;3.60;;;19.90;76.60;;;;;;10530190;28;20020;-59
2023/09/03 07:00:53;;;;;;;19.92;3.38;;;20.00;76.10;;;;;;10529894;28;20114;-61
2023/09/03 07:05:54;;;;;;;13.65;4.07;;;19.90;75.90;;;;;;10529866;28;20396;-59
2023/09/03 07:10:59;;;;;;;8.15;3.35;;;19.90;75.80;;;;;;10512514;28;20098;-59
2023/09/03 07:16:04;;;;;;;16.20;3.78;;;19.90;75.90;;;;;;10533308;28;20035;-58
2023/09/03 07:21:06;;;;;;;24.38;4.88;;;19.90;75.80;;;;;;10486354;28;20064;-56
2023/09/03 07:26:08;;;;;;;21.48;5.35;;;20.00;75.70;;;;;;10489891;28;20116;-60
2023/09/03 07:31:09;;;;;;;22.10;5.15;;;20.20;75.30;;;;;;10499595;28;20032;-57
2023/09/03 07:36:10;;;;;;;23.35;5.25;;;20.10;75.50;;;;;;10519777;28;20483;-59
2023/09/03 07:41:11;;;;;;;19.23;4.95;;;20.00;75.60;;;;;;10524562;28;20035;-57
2023/09/03 07:46:12;;;;;;;19.50;4.32;;;20.00;75.80;;;;;;10529491;28;20360;-58
2023/09/03 07:51:15;;;;;;;12.35;3.70;;;20.00;75.90;;;;;;10510403;28;20036;-60
2023/09/03 07:56:19;;;;;;;22.55;4.88;;;20.00;76.00;;;;;;10536095;28;20025;-57
2023/09/03 08:01:19;;;;;;;29.27;5.05;;;20.10;76.20;;;;;;10517941;28;20028;-58
2023/09/03 08:06:20;;;;;;;28.45;5.28;;;20.10;76.20;;;;;;10501213;28;20474;-56
2023/09/03 08:11:21;;;;;;;27.15;6.53;;;20.10;76.40;;;;;;10536156;28;20032;-58
2023/09/03 08:16:22;;;;;;;20.30;4.68;;;20.10;76.10;;;;;;10536069;28;20470;-58
2023/09/03 08:21:22;;;;;;;30.63;4.97;;;20.10;76.20;;;;;;10536121;28;20043;-60
2023/09/03 08:26:23;;;;;;;25.67;4.95;;;20.20;76.30;;;;;;10534932;28;20037;-58
2023/09/03 08:31:24;;;;;;;11.88;4.20;;;20.20;76.30;;;;;;10516299;28;20035;-59
2023/09/03 08:36:25;;;;;;;23.35;4.65;;;20.20;76.60;;;;;;10535419;28;20035;-55
2023/09/03 08:41:25;;;;;;;16.92;5.07;;;20.40;76.60;;;;;;10534267;28;20039;-58
2023/09/03 08:46:31;;;;;;;11.68;3.65;;;20.30;75.80;;;;;;10534139;28;20058;-63
2023/09/03 08:51:33;;;;;;;8.05;3.42;;;20.30;76.40;;;;;;10517043;28;20059;-59
2023/09/03 08:56:34;;;;;;;12.93;4.50;;;20.20;76.50;;;;;;10535318;28;20024;-59
2023/09/03 09:01:37;;;;;;;9.10;3.45;;;20.20;76.50;;;;;;10516215;28;20101;-58
2023/09/03 09:06:43;;;;;;;9.65;3.40;;;20.30;76.60;;;;;;10533939;28;20455;-60
2023/09/03 09:11:58;;;;;;;9.88;3.50;;;20.20;76.50;;;;;;10516510;28;20046;-59
2023/09/03 09:16:58;;;;;;;12.32;4.55;;;20.30;76.50;;;;;;10516173;28;20028;-59
2023/09/03 09:21:59;;;;;;;8.68;3.25;;;20.20;76.40;;;;;;10533414;28;20021;-59
2023/09/03 09:27:19;;;;;;;7.10;3.28;;;20.20;76.40;;;;;;10533006;28;20031;-60
2023/09/03 09:32:23;;;;;;;7.47;3.05;;;20.20;76.30;;;;;;10533403;28;20031;-59
2023/09/03 09:37:24;;;;;;;9.30;4.03;;;20.20;76.40;;;;;;10514767;28;20016;-60
2023/09/03 09:42:25;;;;;;;8.07;3.10;;;20.30;76.40;;;;;;10532834;28;20028;-59
2023/09/03 09:47:27;;;;;;;7.90;3.55;;;20.30;76.40;;;;;;10514093;28;20515;-60
2023/09/03 09:52:37;;;;;;;9.13;2.83;;;20.30;76.30;;;;;;10533006;28;20110;-59
2023/09/03 09:57:38;;;;;;;6.53;2.90;;;20.30;76.20;;;;;;10513977;28;20684;-59
2023/09/03 10:02:38;;;;;;;5.60;3.90;;;20.30;76.20;;;;;;10503843;28;20089;-60
2023/09/03 10:07:40;;;;;;;15.55;4.10;;;20.30;76.10;;;;;;10516210;28;20377;-60
2023/09/03 10:12:41;;;;;;;9.40;2.95;;;20.40;76.30;;;;;;10519453;28;20023;-59
2023/09/03 10:17:50;;;;;;;6.15;2.58;;;20.40;76.70;;;;;;10513370;28;20035;-59
2023/09/03 10:22:56;;;;;;;12.75;3.17;;;20.40;76.70;;;;;;10481467;28;20024;-59
2023/09/03 10:28:04;;;;;;;8.00;3.20;;;20.50;76.90;;;;;;10524176;28;20040;-59
2023/09/03 10:33:08;;;;;;;10.40;3.93;;;20.50;76.90;;;;;;10505308;28;20055;-60
2023/09/03 10:38:30;;;;;;;9.98;3.03;;;20.60;77.20;;;;;;10530668;28;20298;-58
2023/09/03 10:43:31;;;;;;;9.43;3.58;;;20.60;76.80;;;;;;10528050;28;20028;-57
2023/09/03 10:48:36;;;;;;;14.77;3.67;;;20.60;76.70;;;;;;10530779;28;20562;-58
2023/09/03 10:53:44;;;;;;;17.58;3.85;;;20.60;76.70;;;;;;10538527;28;20073;-58
2023/09/03 10:58:58;;;;;;;10.35;3.58;;;20.70;76.80;;;;;;10537731;28;20050;-58
2023/09/03 11:04:03;;;;;;;15.20;3.53;;;20.70;76.90;;;;;;10516815;28;20028;-58
2023/09/03 11:09:05;;;;;;;10.40;2.85;;;20.70;77.10;;;;;;10532850;28;20044;-58
2023/09/03 11:14:07;;;;;;;11.75;2.85;;;20.70;77.10;;;;;;10538129;28;20424;-59
2023/09/03 11:19:08;;;;;;;15.48;4.10;;;20.70;77.10;;;;;;10537558;28;20455;-58
2023/09/03 11:24:18;;;;;;;10.73;3.42;;;20.70;77.20;;;;;;10521839;28;20090;-60
2023/09/03 11:29:25;;;;;;;14.80;3.38;;;20.70;77.50;;;;;;10521736;28;20053;-59
2023/09/03 11:34:29;;;;;;;17.75;3.33;;;20.70;76.80;;;;;;10519858;28;20070;-59
2023/09/03 11:39:30;;;;;;;14.65;3.05;;;20.70;75.60;;;;;;10537310;28;20028;-58
2023/09/03 11:44:32;;;;;;;12.15;3.83;;;20.70;75.20;;;;;;10519292;28;20407;-59
2023/09/03 11:49:32;;;;;;;12.38;2.72;;;20.70;74.30;;;;;;10518567;28;20479;-59
2023/09/03 11:54:33;;;;;;;9.20;2.40;;;20.80;73.50;;;;;;10537406;28;20028;-59
2023/09/03 11:59:34;;;;;;;12.50;3.17;;;20.80;73.00;;;;;;10535429;28;20036;-60
2023/09/03 12:04:35;;;;;;;12.93;3.45;;;20.80;73.00;;;;;;10517691;28;20043;-61
2023/09/03 12:09:38;;;;;;;18.85;3.05;;;20.70;73.20;;;;;;10517448;28;20101;-60
2023/09/03 12:14:39;;;;;;;8.43;2.40;;;20.70;72.80;;;;;;10518525;28;20030;-60
2023/09/03 12:19:41;;;;;;;7.13;2.20;;;20.70;71.70;;;;;;10535755;28;20032;-61
2023/09/03 12:24:42;;;;;;;8.48;3.03;;;20.70;71.10;;;;;;10518127;28;20058;-62
2023/09/03 12:29:43;;;;;;;4.07;2.17;;;20.70;70.80;;;;;;10516591;28;20039;-60
2023/09/03 12:34:49;;;;;;;4.95;1.98;;;20.70;70.70;;;;;;10535787;28;20032;-61
2023/09/03 12:39:49;;;;;;;4.85;2.22;;;20.70;70.70;;;;;;10512730;28;20028;-59
2023/09/03 12:44:51;;;;;;;4.20;2.15;;;20.60;70.60;;;;;;10531525;28;20036;-59
2023/09/03 12:49:52;;;;;;;3.42;1.85;;;20.60;70.40;;;;;;10515759;28;20150;-61
2023/09/03 12:54:52;;;;;;;4.38;1.65;;;20.60;70.50;;;;;;10533667;28;20020;-60
2023/09/03 12:59:53;;;;;;;4.40;2.03;;;20.60;70.40;;;;;;10533285;28;20020;-61
2023/09/03 13:04:54;;;;;;;4.28;1.75;;;20.60;70.20;;;;;;10533710;28;20040;-61
2023/09/03 13:09:54;;;;;;;3.65;2.22;;;20.60;70.80;;;;;;10515196;28;20036;-61
2023/09/03 13:14:55;;;;;;;2.88;1.85;;;20.70;71.00;;;;;;10533760;28;20032;-61
2023/09/03 13:19:56;;;;;;;3.65;1.42;;;20.70;70.90;;;;;;10514989;28;20387;-60
2023/09/03 13:24:57;;;;;;;2.28;1.70;;;20.70;71.00;;;;;;10533280;28;20101;-62
2023/09/03 13:29:58;;;;;;;3.08;1.42;;;20.70;71.30;;;;;;10530998;28;20089;-61
2023/09/03 13:34:58;;;;;;;4.32;2.13;;;20.70;71.40;;;;;;10532476;28;20459;-62
2023/09/03 13:39:59;;;;;;;3.83;1.65;;;20.70;71.50;;;;;;10532282;28;20296;-61
2023/09/03 13:47:39;;;;;;;3.55;2.25;;;20.80;71.50;;;;;;10483892;28;20974;-59
2023/09/03 13:52:40;;;;;;;2.38;1.45;;;20.80;71.60;;;;;;10443730;28;20118;-62
2023/09/03 13:57:41;;;;;;;5.57;1.67;;;20.70;71.60;;;;;;10443389;28;20028;-62
2023/09/03 14:02:42;;;;;;;7.78;2.53;;;20.70;71.40;;;;;;10443203;28;20036;-59
2023/09/03 14:07:43;;;;;;;7.03;2.20;;;20.70;71.40;;;;;;10442425;28;20107;-59
2023/09/03 14:12:44;;;;;;;7.70;2.42;;;20.70;71.40;;;;;;10428704;28;20025;-63
2023/09/03 14:17:44;;;;;;;5.22;2.17;;;20.70;71.50;;;;;;10442007;28;20542;-58
2023/09/03 14:22:45;;;;;;;35.10;4.85;;;20.70;71.80;;;;;;10440817;28;20021;-61
2023/09/03 14:27:46;;;;;;;6.38;2.50;;;20.70;72.00;;;;;;10416648;28;20037;-60
2023/09/03 14:32:47;;;;;;;7.55;2.15;;;20.70;71.70;;;;;;10414645;28;20099;-60
2023/09/03 16:17:16;;;;;;;145.93;110.47;;;21.40;75.20;;;;;;10474426;28;20453;-62
2023/09/03 16:22:19;;;;;;;96.50;62.90;;;21.20;75.10;;;;;;10441934;28;20439;-63
2023/09/03 16:27:20;;;;;;;88.82;61.00;;;21.10;75.10;;;;;;10441858;28;20037;-63
2023/09/03 16:32:20;;;;;;;100.65;60.38;;;21.00;75.10;;;;;;10433221;28;20033;-62
2023/09/03 16:37:21;;;;;;;71.25;50.97;;;21.00;75.40;;;;;;10435234;28;20034;-62
2023/09/03 16:42:22;;;;;;;78.93;53.15;;;20.90;75.30;;;;;;10441300;28;20040;-62
2023/09/03 16:47:29;;;;;;;62.80;44.60;;;20.90;75.30;;;;;;10449299;28;20037;-61
2023/09/03 16:52:30;;;;;;;62.42;40.17;;;20.90;75.00;;;;;;10437157;28;20029;-60
2023/09/03 16:57:33;;;;;;;53.45;35.50;;;20.90;73.60;;;;;;10438483;28;20025;-61
2023/09/03 17:02:34;;;;;;;47.28;31.25;;;20.90;73.30;;;;;;10433945;28;20039;-60
2023/09/03 17:07:35;;;;;;;46.63;30.95;;;21.00;72.90;;;;;;10439621;28;20044;-61
2023/09/03 17:12:36;;;;;;;41.33;28.90;;;20.90;73.30;;;;;;10397158;28;20053;-61
2023/09/03 17:17:37;;;;;;;43.28;31.50;;;20.80;73.60;;;;;;10403264;28;20033;-63
2023/09/03 17:22:38;;;;;;;37.75;26.48;;;20.80;73.40;;;;;;10414466;28;20033;-61
2023/09/03 17:27:39;;;;;;;34.83;24.90;;;20.80;73.50;;;;;;10378502;28;20477;-62
2023/09/03 17:32:40;;;;;;;38.08;24.77;;;20.70;73.50;;;;;;10388333;28;20034;-62
2023/09/03 17:37:41;;;;;;;32.22;22.90;;;20.70;73.70;;;;;;10385246;28;20030;-62
2023/09/03 17:42:41;;;;;;;31.38;22.13;;;20.70;74.00;;;;;;10371105;28;20038;-62
2023/09/03 17:47:42;;;;;;;29.58;19.90;;;20.70;73.90;;;;;;10385695;28;20469;-61
2023/09/03 17:52:43;;;;;;;25.58;17.98;;;20.70;73.80;;;;;;10399536;28;20037;-61
2023/09/03 17:57:45;;;;;;;26.48;17.25;;;20.60;73.60;;;;;;10412486;28;20029;-62
2023/09/03 18:02:45;;;;;;;25.10;18.33;;;20.60;73.70;;;;;;10390244;28;20025;-62
2023/09/03 18:07:46;;;;;;;23.65;15.18;;;20.60;74.40;;;;;;10389011;28;20038;-61
2023/09/03 18:12:47;;;;;;;25.65;12.38;;;20.70;74.30;;;;;;10398217;28;20049;-61
2023/09/03 18:17:48;;;;;;;17.92;12.73;;;20.80;74.50;;;;;;10397388;28;20029;-62
2023/09/03 18:22:48;;;;;;;16.38;11.80;;;20.80;74.70;;;;;;10397576;28;20042;-62
2023/09/03 18:27:53;;;;;;;17.05;10.45;;;20.80;74.70;;;;;;10373717;28;20022;-61
2023/09/03 18:32:53;;;;;;;20.33;10.73;;;20.70;74.50;;;;;;10403062;28;20041;-61
2023/09/03 18:37:54;;;;;;;26.33;9.18;;;20.70;74.60;;;;;;10395391;28;20025;-61
2023/09/03 18:42:56;;;;;;;18.77;8.60;;;20.60;74.50;;;;;;10370701;28;20030;-60
2023/09/03 18:47:57;;;;;;;17.42;8.45;;;20.70;74.50;;;;;;10370268;28;20487;-59
2023/09/03 18:52:58;;;;;;;16.42;7.57;;;20.80;74.60;;;;;;10386397;28;20042;-59
2023/09/03 18:57:59;;;;;;;18.40;7.45;;;20.80;74.80;;;;;;10377834;28;20037;-60
2023/09/03 19:03:05;;;;;;;14.48;8.27;;;20.80;74.70;;;;;;10383172;28;20126;-61
2023/09/03 19:08:06;;;;;;;14.93;7.18;;;20.80;74.60;;;;;;10379974;28;20026;-60
2023/09/03 19:13:08;;;;;;;11.20;6.95;;;20.80;74.70;;;;;;10369052;28;20416;-59
2023/09/03 19:18:11;;;;;;;11.73;7.30;;;20.70;74.90;;;;;;10376637;28;20030;-60
2023/09/03 19:23:12;;;;;;;12.55;6.63;;;20.60;74.80;;;;;;10368457;28;20033;-60
2023/09/03 19:28:16;;;;;;;9.38;6.20;;;20.60;74.80;;;;;;10378655;28;20021;-60
2023/09/03 19:33:19;;;;;;;11.15;6.38;;;20.60;74.80;;;;;;10374504;28;20117;-59
2023/09/03 19:38:19;;;;;;;7.50;5.60;;;20.60;74.80;;;;;;10368826;28;20033;-60
2023/09/03 19:43:22;;;;;;;14.13;7.13;;;20.60;74.70;;;;;;10386625;28;20034;-60
2023/09/03 19:48:25;;;;;;;8.98;5.55;;;20.50;74.70;;;;;;10409077;28;20433;-60
2023/09/03 19:53:30;;;;;;;9.20;6.13;;;20.60;74.70;;;;;;10408400;28;20029;-60
2023/09/03 19:58:32;;;;;;;9.20;6.65;;;20.50;74.70;;;;;;10409006;28;20026;-59
2023/09/03 20:03:33;;;;;;;7.88;5.97;;;20.50;74.80;;;;;;10407364;28;20382;-59
2023/09/03 20:08:34;;;;;;;6.70;5.40;;;20.50;74.80;;;;;;10408593;28;20103;-59
2023/09/03 20:13:35;;;;;;;8.57;4.93;;;20.50;74.80;;;;;;10406559;28;20087;-60
2023/09/03 20:18:36;;;;;;;9.68;6.28;;;20.50;74.80;;;;;;10406173;28;20025;-60
2023/09/03 20:23:36;;;;;;;6.43;4.95;;;20.50;74.80;;;;;;10388247;28;20026;-61
2023/09/03 20:28:37;;;;;;;8.95;5.95;;;20.50;74.80;;;;;;10401794;28;20032;-60
2023/09/03 20:33:38;;;;;;;7.60;5.05;;;20.50;74.90;;;;;;10368282;28;20037;-60
2023/09/03 20:38:39;;;;;;;8.73;5.65;;;20.50;74.90;;;;;;10367383;28;20071;-60
2023/09/03 20:43:39;;;;;;;8.63;5.38;;;20.50;75.00;;;;;;10386615;28;20037;-60
2023/09/03 20:48:40;;;;;;;9.48;5.55;;;20.40;74.90;;;;;;10406752;28;20088;-61
2023/09/03 20:53:41;;;;;;;9.40;5.35;;;20.50;75.00;;;;;;10392793;28;20030;-60
2023/09/03 20:58:41;;;;;;;8.75;5.60;;;20.40;75.00;;;;;;10407667;28;20029;-60
2023/09/03 21:03:42;;;;;;;8.82;5.40;;;20.40;75.00;;;;;;10414631;28;20029;-60
2023/09/03 21:08:43;;;;;;;6.30;4.70;;;20.40;75.10;;;;;;10415344;28;20037;-60
2023/09/03 21:13:44;;;;;;;7.82;5.30;;;20.40;75.10;;;;;;10414169;28;20049;-60
2023/09/03 21:18:45;;;;;;;8.02;4.88;;;20.40;75.10;;;;;;10413399;28;20025;-60
2023/09/03 21:23:45;;;;;;;5.85;4.45;;;20.40;75.00;;;;;;10394758;28;20026;-60
2023/09/03 21:28:47;;;;;;;8.05;4.32;;;20.40;75.00;;;;;;10422427;28;20032;-60
2023/09/03 21:33:49;;;;;;;9.07;4.72;;;20.40;74.90;;;;;;10372942;28;20648;-60
2023/09/03 21:38:50;;;;;;;7.38;4.57;;;20.40;74.90;;;;;;10373203;28;20034;-60
2023/09/03 21:43:53;;;;;;;6.70;4.38;;;20.40;74.90;;;;;;10372775;28;20030;-60
2023/09/03 21:48:54;;;;;;;6.85;4.47;;;20.40;74.80;;;;;;10372832;28;20053;-60
2023/09/03 21:53:55;;;;;;;7.70;4.82;;;20.40;74.80;;;;;;10372139;28;20045;-60
2023/09/03 21:58:55;;;;;;;5.15;3.42;;;20.40;74.70;;;;;;10403254;28;20549;-60
2023/09/03 22:03:56;;;;;;;7.22;4.75;;;20.30;74.70;;;;;;10412666;28;20029;-60
2023/09/03 22:08:57;;;;;;;5.75;3.67;;;20.30;74.60;;;;;;10412903;28;20111;-60
2023/09/03 22:13:58;;;;;;;5.63;3.92;;;20.30;74.60;;;;;;10412294;28;20496;-59
2023/09/03 22:18:59;;;;;;;5.45;3.85;;;20.30;74.60;;;;;;10412363;28;20017;-61
2023/09/03 22:24:00;;;;;;;5.97;4.15;;;20.30;74.50;;;;;;10389476;28;20477;-60
2023/09/03 22:29:01;;;;;;;6.20;3.80;;;20.30;74.50;;;;;;10389978;28;20025;-60
2023/09/03 22:34:02;;;;;;;4.80;3.38;;;20.30;74.40;;;;;;10371041;28;20481;-60
2023/09/03 22:39:02;;;;;;;4.82;3.42;;;20.30;74.40;;;;;;10370785;28;20531;-60
2023/09/03 22:44:04;;;;;;;6.82;3.78;;;20.30;74.40;;;;;;10396031;28;20025;-60
2023/09/03 22:49:05;;;;;;;4.35;3.00;;;20.30;74.40;;;;;;10411321;28;20117;-59
2023/09/03 22:54:06;;;;;;;6.68;3.45;;;20.30;74.30;;;;;;10410818;28;20048;-59
2023/09/03 22:59:06;;;;;;;5.28;3.25;;;20.30;74.30;;;;;;10396686;28;20030;-60
2023/09/03 23:04:07;;;;;;;4.78;3.47;;;20.30;74.30;;;;;;10410362;28;20480;-60
2023/09/03 23:09:08;;;;;;;4.15;3.22;;;20.30;74.30;;;;;;10410263;28;20029;-60
2023/09/03 23:14:09;;;;;;;4.18;2.90;;;20.20;74.20;;;;;;10409313;28;20060;-61
2023/09/03 23:19:10;;;;;;;5.57;3.60;;;20.20;74.20;;;;;;10409991;28;20071;-60
2023/09/03 23:24:13;;;;;;;5.72;3.38;;;20.20;74.10;;;;;;10385530;28;20045;-61
2023/09/03 23:29:14;;;;;;;4.68;2.90;;;20.30;74.10;;;;;;10395938;28;20072;-60
2023/09/03 23:34:15;;;;;;;4.82;3.53;;;20.20;74.00;;;;;;10368871;28;20361;-60
2023/09/03 23:39:17;;;;;;;4.40;3.10;;;20.30;74.60;;;;;;10395977;28;20037;-61
2023/09/03 23:44:17;;;;;;;4.70;3.00;;;20.20;73.90;;;;;;10409535;28;20033;-60
2023/09/03 23:49:18;;;;;;;5.30;3.45;;;20.20;73.90;;;;;;10409158;28;20029;-60
2023/09/03 23:54:19;;;;;;;4.43;3.08;;;20.20;73.80;;;;;;10408928;28;20034;-60
2023/09/03 23:59:20;;;;;;;4.40;3.10;;;20.20;73.80;;;;;;10409006;28;20067;-60
